Terminal Aerodrome Forecast
Issued by NWS Billings, MT

Home | Current Version | Previous Version | Graphics & Text | Print | Product List | Glossary On
Versions: 1 2 3 4 5 6 7 8 9 10 11 12 13 14 15 16 17 18 19 20 21 22 23 24 25 26 27 28 29 30 31 32
000
FTUS45 KBYZ 262337
TAFMLS
TAF
KMLS 262337Z 2700/2724 34012KT P6SM -RA OVC015
     FM270300 34010KT 5SM -RA OVC008
     FM270900 32008KT 3SM BR OVC005
     FM271800 32005KT P6SM OVC015=

USA.gov is the U.S. government's official web portal to all federal, state and local government web resources and services.